Time;durP1;ratioP1;P1;durP2;ratioP2;P2;SDS_P1;SDS_P2;PMS_P1;PMS_P2;Temp;Humidity;BMP_temperature;BMP_pressure;BME280_temperature;BME280_humidity;BME280_pressure;Samples;Min_cycle;Max_cycle;Signal;HPM_P1;HPM_P2
2022/08/19 00:01:58;;;;;;;12.13;10.93;;;18.80;99.90;;;;;;5035394;28;20484;-76
2022/08/19 00:04:32;;;;;;;16.03;12.87;;;18.80;99.90;;;;;;5034968;28;20427;-76
2022/08/19 00:07:01;;;;;;;12.40;11.20;;;18.70;99.90;;;;;;5033912;28;20466;-76
2022/08/19 00:09:29;;;;;;;12.97;11.70;;;18.70;99.90;;;;;;5033762;28;20473;-76
2022/08/19 00:11:59;;;;;;;13.00;11.80;;;18.70;99.90;;;;;;5035242;28;20443;-75
2022/08/19 00:14:31;;;;;;;12.20;11.10;;;18.70;99.90;;;;;;5033820;28;20959;-77
2022/08/19 00:17:00;;;;;;;13.13;11.80;;;18.70;99.90;;;;;;5035069;28;20465;-76
2022/08/19 00:19:30;;;;;;;11.60;10.50;;;18.70;99.90;;;;;;5033380;28;20445;-76
2022/08/19 00:21:58;;;;;;;12.43;11.13;;;18.70;99.90;;;;;;5034586;28;20497;-76
2022/08/19 00:24:28;;;;;;;11.43;10.23;;;18.70;99.90;;;;;;5033292;28;20455;-77
2022/08/19 00:26:57;;;;;;;12.13;10.93;;;18.70;99.90;;;;;;5035330;28;20501;-77
2022/08/19 00:29:45;;;;;;;12.03;10.67;;;18.70;99.90;;;;;;5034742;28;20455;-76
2022/08/19 00:32:20;;;;;;;11.70;10.70;;;18.60;99.90;;;;;;5033379;28;20975;-78
2022/08/19 00:34:50;;;;;;;11.27;10.20;;;18.60;99.90;;;;;;5034547;28;20439;-77
2022/08/19 00:37:19;;;;;;;11.97;10.87;;;18.60;99.90;;;;;;5034129;28;21030;-76
2022/08/19 00:39:47;;;;;;;11.70;10.50;;;18.60;99.90;;;;;;5033890;28;20427;-76
2022/08/19 00:42:16;;;;;;;12.50;11.23;;;18.60;99.90;;;;;;5032867;28;20451;-77
2022/08/19 00:44:45;;;;;;;12.83;11.07;;;18.60;99.90;;;;;;5034140;28;20936;-77
2022/08/19 00:47:14;;;;;;;11.57;10.37;;;18.60;99.90;;;;;;5034011;28;20465;-77
2022/08/19 00:49:50;;;;;;;20.33;11.80;;;18.60;99.90;;;;;;5034708;28;20849;-76
2022/08/19 00:52:26;;;;;;;12.20;10.90;;;18.60;99.90;;;;;;5033742;28;20443;-76
2022/08/19 00:54:55;;;;;;;12.00;10.90;;;18.70;99.90;;;;;;5032996;28;20523;-77
2022/08/19 00:57:27;;;;;;;12.70;11.47;;;18.70;99.90;;;;;;5033785;28;20455;-77
2022/08/19 00:59:59;;;;;;;12.97;11.67;;;18.70;99.90;;;;;;5032737;28;20489;-76
2022/08/19 01:02:31;;;;;;;14.57;11.97;;;18.70;99.90;;;;;;5032889;28;20439;-76
2022/08/19 01:05:02;;;;;;;12.80;11.50;;;18.70;99.90;;;;;;5034301;28;20447;-78
2022/08/19 01:07:31;;;;;;;13.60;12.37;;;18.70;99.90;;;;;;5034254;28;20603;-76
2022/08/19 01:10:08;;;;;;;14.67;12.93;;;18.70;99.90;;;;;;5033942;28;20454;-75
2022/08/19 01:12:36;;;;;;;13.67;11.60;;;18.70;99.90;;;;;;5034034;28;20477;-76
2022/08/19 01:15:06;;;;;;;13.23;11.57;;;18.60;99.90;;;;;;5033923;28;20439;-76
2022/08/19 01:17:37;;;;;;;11.90;10.70;;;18.60;99.90;;;;;;5034090;28;20465;-76
2022/08/19 01:20:07;;;;;;;13.27;11.97;;;18.60;99.90;;;;;;5034005;28;20451;-76
2022/08/19 01:22:41;;;;;;;11.93;10.73;;;18.60;99.90;;;;;;5033980;28;20522;-77
2022/08/19 01:25:10;;;;;;;12.53;11.27;;;18.60;99.90;;;;;;5034493;28;20453;-78
2022/08/19 01:27:46;;;;;;;14.93;13.40;;;18.60;99.90;;;;;;5034578;28;20546;-77
2022/08/19 01:30:20;;;;;;;14.20;12.90;;;18.60;99.90;;;;;;5034667;28;20471;-77
2022/08/19 01:32:48;;;;;;;13.73;12.47;;;18.60;99.90;;;;;;5033104;28;20438;-77
2022/08/19 01:35:17;;;;;;;14.90;13.40;;;18.60;99.90;;;;;;5033073;28;20459;-78
2022/08/19 01:37:51;;;;;;;15.20;13.90;;;18.60;99.90;;;;;;5034583;28;20946;-77
2022/08/19 01:40:21;;;;;;;15.00;13.70;;;18.60;99.90;;;;;;5032152;28;20467;-77
2022/08/19 01:42:50;;;;;;;14.97;13.47;;;18.60;99.90;;;;;;5033723;28;20416;-77
2022/08/19 01:45:18;;;;;;;14.27;12.87;;;18.60;99.90;;;;;;5033437;28;20531;-77
2022/08/19 01:47:47;;;;;;;15.50;13.20;;;18.60;99.90;;;;;;5034270;28;20481;-77
2022/08/19 01:50:30;;;;;;;15.40;13.90;;;18.60;99.90;;;;;;5034388;28;20504;-77
2022/08/19 01:53:00;;;;;;;16.03;14.43;;;18.50;99.90;;;;;;5036261;28;20413;-77
2022/08/19 01:55:36;;;;;;;15.40;13.97;;;18.60;99.90;;;;;;5037745;28;20443;-76
2022/08/19 01:58:11;;;;;;;14.50;13.00;;;18.50;99.90;;;;;;5037463;28;20863;-76
2022/08/19 02:00:40;;;;;;;13.27;12.00;;;18.50;99.90;;;;;;5037260;28;20497;-77
2022/08/19 02:03:09;;;;;;;15.70;14.20;;;18.50;99.90;;;;;;5036752;28;20911;-77
2022/08/19 02:05:37;;;;;;;15.43;13.93;;;18.50;99.90;;;;;;5036561;28;20475;-77
2022/08/19 02:08:07;;;;;;;15.20;13.90;;;18.50;99.90;;;;;;5038478;28;20782;-76
2022/08/19 02:10:40;;;;;;;14.87;13.40;;;18.50;99.90;;;;;;5038116;28;20429;-77
2022/08/19 02:13:08;;;;;;;16.27;14.80;;;18.50;99.90;;;;;;5038438;28;20422;-77
2022/08/19 02:15:37;;;;;;;16.33;14.60;;;18.50;99.90;;;;;;5038141;28;20439;-76
2022/08/19 02:18:07;;;;;;;15.90;14.30;;;18.50;99.90;;;;;;5038568;28;20853;-77
2022/08/19 02:20:35;;;;;;;16.13;13.87;;;18.50;99.90;;;;;;5037708;28;20431;-77
2022/08/19 02:23:03;;;;;;;17.70;15.80;;;18.50;99.90;;;;;;5037529;28;20521;-77
2022/08/19 02:25:33;;;;;;;17.93;16.10;;;18.50;99.90;;;;;;5034793;28;20424;-76
2022/08/19 02:28:01;;;;;;;18.10;16.37;;;18.50;99.90;;;;;;5035869;28;20472;-77
2022/08/19 02:30:29;;;;;;;17.90;16.20;;;18.50;99.90;;;;;;5035250;28;21006;-77
2022/08/19 02:32:58;;;;;;;16.73;15.03;;;18.50;99.90;;;;;;5035148;28;20562;-77
2022/08/19 02:35:26;;;;;;;27.27;16.73;;;18.40;99.90;;;;;;5036467;28;20957;-78
2022/08/19 02:40:41;;;;;;;17.97;16.10;;;18.40;99.90;;;;;;5034543;28;20494;-77
2022/08/19 02:43:10;;;;;;;18.30;16.43;;;18.30;99.90;;;;;;5035395;28;20849;-77
2022/08/19 02:45:40;;;;;;;17.47;15.77;;;18.30;99.90;;;;;;5036710;28;20439;-78
2022/08/19 02:48:09;;;;;;;17.73;16.03;;;18.30;99.90;;;;;;5036702;28;20419;-77
2022/08/19 02:50:52;;;;;;;18.77;16.87;;;18.20;99.90;;;;;;5035360;28;20430;-77
2022/08/19 02:53:21;;;;;;;17.83;16.13;;;18.10;99.90;;;;;;5035534;28;20426;-77
2022/08/19 02:55:51;;;;;;;17.50;15.90;;;18.10;99.90;;;;;;5035004;28;20474;-77
2022/08/19 02:58:22;;;;;;;17.50;15.90;;;18.00;99.90;;;;;;5033736;28;20424;-76
2022/08/19 03:00:54;;;;;;;17.97;16.17;;;18.00;99.90;;;;;;5039543;28;20415;-75
2022/08/19 03:03:23;;;;;;;18.03;16.13;;;17.90;99.90;;;;;;5035663;28;20489;-77
2022/08/19 03:05:51;;;;;;;17.63;15.73;;;17.90;99.90;;;;;;5035555;28;20524;-77
2022/08/19 03:08:25;;;;;;;18.27;16.30;;;17.80;99.90;;;;;;5035503;28;20501;-76
2022/08/19 03:10:55;;;;;;;17.63;15.80;;;17.80;99.90;;;;;;5035471;28;20481;-76
2022/08/19 03:13:24;;;;;;;18.00;16.20;;;17.70;99.90;;;;;;5034896;28;20839;-76
2022/08/19 03:15:52;;;;;;;17.50;15.43;;;17.70;99.90;;;;;;5034969;28;20477;-76
2022/08/19 03:18:21;;;;;;;18.00;15.77;;;17.70;99.90;;;;;;5033422;28;20422;-76
2022/08/19 03:20:52;;;;;;;17.30;15.60;;;17.60;99.90;;;;;;5033598;28;20860;-78
2022/08/19 03:23:21;;;;;;;16.67;15.07;;;17.60;99.90;;;;;;4995678;28;1129129;-76
2022/08/19 03:25:50;;;;;;;17.37;15.60;;;17.60;99.90;;;;;;5034794;28;20859;-77
2022/08/19 03:28:39;;;;;;;15.23;13.83;;;17.60;99.90;;;;;;5037074;28;20756;-77
2022/08/19 03:31:11;;;;;;;16.63;15.07;;;17.60;99.90;;;;;;5035793;28;20444;-75
2022/08/19 03:33:59;;;;;;;18.30;16.40;;;17.60;99.90;;;;;;5034316;28;20406;-76
2022/08/19 03:36:28;;;;;;;18.60;16.70;;;17.60;99.90;;;;;;5035905;28;20481;-76
2022/08/19 03:38:59;;;;;;;17.37;15.70;;;17.60;99.90;;;;;;5035357;28;20442;-76
2022/08/19 03:41:30;;;;;;;19.00;17.17;;;17.60;99.90;;;;;;5034210;28;20421;-76
2022/08/19 03:44:14;;;;;;;19.17;17.40;;;17.60;99.90;;;;;;5036019;28;20455;-75
2022/08/19 03:46:47;;;;;;;17.27;15.67;;;17.60;99.90;;;;;;5034481;28;20475;-77
2022/08/19 03:49:15;;;;;;;15.80;14.37;;;17.60;99.90;;;;;;5035250;28;20439;-77
2022/08/19 03:51:47;;;;;;;16.23;14.63;;;17.60;99.90;;;;;;5035590;28;20463;-77
2022/08/19 03:54:17;;;;;;;16.13;14.53;;;17.60;99.90;;;;;;5035382;28;20448;-76
2022/08/19 03:56:47;;;;;;;16.00;14.40;;;17.60;99.90;;;;;;5034320;28;20495;-78
2022/08/19 03:59:25;;;;;;;17.87;16.17;;;17.50;99.90;;;;;;5035889;28;20856;-75
2022/08/19 04:01:54;;;;;;;17.00;15.40;;;17.50;99.90;;;;;;5034137;28;20435;-76
2022/08/19 04:04:23;;;;;;;17.87;16.17;;;17.50;99.90;;;;;;5035510;28;20980;-76
2022/08/19 04:06:52;;;;;;;17.57;15.87;;;17.50;99.90;;;;;;5033758;28;20466;-75
2022/08/19 04:09:21;;;;;;;18.30;16.50;;;17.40;99.90;;;;;;5034881;28;20432;-76
2022/08/19 04:11:53;;;;;;;18.00;16.37;;;17.40;99.90;;;;;;5033465;28;20449;-77
2022/08/19 04:14:25;;;;;;;16.90;15.20;;;17.40;99.90;;;;;;5034927;28;20412;-77
2022/08/19 04:16:53;;;;;;;20.67;18.17;;;17.40;99.90;;;;;;5033939;28;20565;-76
2022/08/19 04:19:22;;;;;;;19.23;17.30;;;17.40;99.90;;;;;;5034792;28;20449;-76
2022/08/19 04:21:53;;;;;;;18.10;16.40;;;17.40;99.90;;;;;;5034676;28;20808;-76
2022/08/19 04:24:22;;;;;;;20.20;17.33;;;17.40;99.90;;;;;;5034646;28;20520;-76
2022/08/19 04:26:51;;;;;;;20.13;18.07;;;17.30;99.90;;;;;;5034818;28;20491;-77
2022/08/19 04:29:24;;;;;;;19.43;17.50;;;17.30;99.90;;;;;;5033328;28;20417;-76
2022/08/19 04:31:55;;;;;;;20.00;18.00;;;17.30;99.90;;;;;;5033338;28;20476;-76
2022/08/19 04:34:25;;;;;;;21.90;19.70;;;17.30;99.90;;;;;;5033208;28;20501;-76
2022/08/19 04:36:55;;;;;;;23.37;20.30;;;17.30;99.90;;;;;;5033321;28;20471;-77
2022/08/19 04:42:38;;;;;;;23.90;21.17;;;17.30;99.90;;;;;;5035680;28;20971;-77
2022/08/19 04:45:02;;;;;;;24.80;22.33;;;17.20;99.90;;;;;;5033385;28;20447;-77
2022/08/19 04:47:33;;;;;;;25.33;22.80;;;17.20;99.90;;;;;;5033007;28;20446;-77
2022/08/19 04:50:22;;;;;;;23.80;20.17;;;17.20;99.90;;;;;;5033309;28;20455;-77
2022/08/19 04:52:52;;;;;;;26.60;21.23;;;17.20;99.90;;;;;;5032830;28;20424;-76
2022/08/19 04:55:21;;;;;;;25.03;21.30;;;17.10;99.90;;;;;;5033198;28;20772;-77
2022/08/19 04:57:50;;;;;;;24.20;21.50;;;17.10;99.90;;;;;;5034027;28;20990;-76
2022/08/19 05:00:18;;;;;;;22.57;20.27;;;17.10;99.90;;;;;;5034263;28;20435;-76
2022/08/19 05:02:49;;;;;;;22.33;20.03;;;17.10;99.90;;;;;;5034052;28;20495;-76
2022/08/19 05:05:17;;;;;;;23.20;20.43;;;17.10;99.90;;;;;;5032768;28;20409;-78
2022/08/19 05:07:45;;;;;;;24.70;20.27;;;17.10;99.90;;;;;;5032906;28;20440;-76
2022/08/19 05:10:13;;;;;;;21.10;18.90;;;17.10;99.90;;;;;;5032473;28;20841;-76
2022/08/19 05:12:42;;;;;;;22.57;20.17;;;17.10;99.90;;;;;;5033815;28;20410;-76
2022/08/19 05:15:10;;;;;;;20.33;17.67;;;17.10;99.90;;;;;;5034050;28;20488;-76
2022/08/19 05:22:31;;;;;;;19.00;17.03;;;17.10;99.90;;;;;;5032574;28;20486;-76
2022/08/19 05:23:15;;;;;;;19.43;17.40;;;17.10;99.90;;;;;;5032317;28;20465;-77
2022/08/19 05:25:50;;;;;;;18.77;16.77;;;17.10;99.90;;;;;;5032252;28;20438;-76
2022/08/19 05:28:18;;;;;;;19.13;17.07;;;17.10;99.90;;;;;;5033927;28;21027;-76
2022/08/19 05:30:47;;;;;;;18.40;15.93;;;17.10;99.90;;;;;;5032173;28;20477;-76
2022/08/19 05:33:16;;;;;;;19.43;17.47;;;17.10;99.90;;;;;;5032404;28;20425;-78
2022/08/19 05:35:45;;;;;;;19.07;17.37;;;17.10;99.90;;;;;;5033984;28;20463;-76
2022/08/19 05:38:14;;;;;;;18.73;17.03;;;17.10;99.90;;;;;;5033840;28;20414;-77
2022/08/19 05:40:45;;;;;;;17.73;16.13;;;17.10;99.90;;;;;;5032152;28;20883;-77
2022/08/19 05:43:15;;;;;;;17.50;15.90;;;17.10;99.90;;;;;;5033701;28;20447;-76
2022/08/19 05:45:44;;;;;;;18.40;16.50;;;17.10;99.90;;;;;;5032272;28;20994;-76
2022/08/19 05:48:13;;;;;;;17.27;15.67;;;17.10;99.90;;;;;;5032396;28;20447;-77
2022/08/19 05:50:44;;;;;;;15.57;14.07;;;17.20;99.90;;;;;;5033899;28;20459;-76
2022/08/19 05:53:14;;;;;;;16.37;14.20;;;17.20;99.90;;;;;;5034287;28;20420;-77
2022/08/19 05:55:42;;;;;;;16.10;14.50;;;17.20;99.90;;;;;;5033278;28;20442;-76
2022/08/19 05:58:10;;;;;;;16.00;14.40;;;17.20;99.90;;;;;;5033421;28;20780;-77
2022/08/19 06:00:39;;;;;;;16.10;14.50;;;17.20;99.90;;;;;;5031933;28;20434;-77
2022/08/19 06:03:07;;;;;;;16.07;14.57;;;17.20;99.90;;;;;;5032074;28;20421;-76
2022/08/19 06:05:41;;;;;;;15.40;13.90;;;17.30;99.90;;;;;;5032340;28;20851;-76
2022/08/19 06:08:21;;;;;;;16.13;14.30;;;17.30;99.90;;;;;;5034081;28;20394;-75
2022/08/19 06:11:15;;;;;;;16.33;14.73;;;17.30;99.90;;;;;;5033601;28;20433;-76
2022/08/19 06:13:44;;;;;;;15.60;14.10;;;17.40;99.90;;;;;;5033572;28;20427;-76
2022/08/19 06:16:12;;;;;;;14.93;13.43;;;17.60;99.90;;;;;;5033349;28;20469;-76
2022/08/19 06:18:41;;;;;;;14.80;13.20;;;17.80;99.90;;;;;;5031888;28;20784;-76
2022/08/19 06:21:09;;;;;;;13.87;12.57;;;18.00;99.90;;;;;;5031796;28;20453;-76
2022/08/19 06:23:39;;;;;;;13.93;12.53;;;18.30;99.90;;;;;;5032279;28;21010;-78
2022/08/19 06:26:07;;;;;;;12.10;10.97;;;18.50;99.90;;;;;;5032371;28;20916;-78
2022/08/19 06:28:35;;;;;;;12.90;11.77;;;18.80;99.90;;;;;;5033432;28;20453;-77
2022/08/19 06:31:07;;;;;;;13.27;12.03;;;19.00;99.90;;;;;;5034557;28;20482;-79
2022/08/19 06:33:37;;;;;;;12.33;11.30;;;19.20;99.90;;;;;;5032841;28;20932;-77
2022/08/19 06:36:06;;;;;;;13.00;11.90;;;19.40;99.90;;;;;;5031932;28;20475;-76
2022/08/19 06:38:34;;;;;;;11.40;10.30;;;19.70;99.90;;;;;;5033691;28;20521;-76
2022/08/19 06:41:05;;;;;;;11.50;10.40;;;19.90;99.90;;;;;;5035926;28;20467;-77
2022/08/19 06:43:35;;;;;;;12.00;11.00;;;20.10;99.90;;;;;;5037371;28;20445;-76
2022/08/19 06:46:13;;;;;;;10.20;9.23;;;20.30;99.90;;;;;;5037255;28;20471;-77
2022/08/19 06:48:42;;;;;;;12.33;10.33;;;20.50;99.90;;;;;;5036875;28;20481;-78
2022/08/19 06:51:15;;;;;;;12.03;10.93;;;20.70;99.90;;;;;;5037461;28;20509;-78
2022/08/19 06:53:46;;;;;;;10.70;9.80;;;20.90;99.90;;;;;;5035969;28;20470;-77
2022/08/19 06:56:19;;;;;;;10.80;9.80;;;21.10;99.90;;;;;;5035784;28;20561;-78
2022/08/19 06:58:52;;;;;;;11.40;10.40;;;21.30;99.90;;;;;;5037622;28;20435;-77
2022/08/19 07:01:21;;;;;;;11.70;10.70;;;21.60;99.90;;;;;;5036646;28;20827;-77
2022/08/19 07:03:49;;;;;;;10.90;9.80;;;21.80;99.90;;;;;;5035700;28;20940;-75
2022/08/19 07:06:19;;;;;;;9.10;8.33;;;21.90;99.90;;;;;;5036951;28;20566;-79
2022/08/19 07:09:09;;;;;;;11.47;10.47;;;22.00;99.90;;;;;;5036468;28;20447;-76
2022/08/19 07:11:45;;;;;;;10.17;9.37;;;22.20;99.90;;;;;;5038447;28;20459;-77
2022/08/19 07:14:15;;;;;;;11.20;10.17;;;22.30;99.90;;;;;;5037863;28;20966;-77
2022/08/19 07:16:47;;;;;;;10.73;9.73;;;22.40;99.90;;;;;;5040098;28;20482;-78
2022/08/19 07:19:16;;;;;;;10.60;9.70;;;22.50;99.90;;;;;;5046629;28;20450;-78
2022/08/19 07:21:46;;;;;;;10.83;9.93;;;22.50;99.90;;;;;;5047793;28;20482;-78
2022/08/19 07:24:15;;;;;;;11.00;10.10;;;22.50;99.90;;;;;;5038054;28;20497;-79
2022/08/19 07:26:46;;;;;;;10.60;9.77;;;22.60;99.90;;;;;;5038537;28;20511;-78
2022/08/19 07:29:22;;;;;;;11.23;10.00;;;22.60;99.90;;;;;;5038720;28;20431;-78
2022/08/19 07:31:55;;;;;;;10.03;9.23;;;22.80;99.90;;;;;;5037827;28;20509;-77
2022/08/19 07:34:25;;;;;;;12.70;10.30;;;22.90;99.90;;;;;;5036159;28;20450;-78
2022/08/19 07:36:53;;;;;;;9.90;9.00;;;23.00;99.90;;;;;;5038085;28;20467;-77
2022/08/19 07:39:24;;;;;;;9.90;9.00;;;23.10;99.90;;;;;;5037348;28;20442;-79
2022/08/19 07:41:55;;;;;;;10.03;9.13;;;23.10;99.90;;;;;;5036154;28;20505;-78
2022/08/19 07:44:23;;;;;;;10.30;9.00;;;23.00;99.90;;;;;;5037320;28;20454;-78
2022/08/19 07:46:55;;;;;;;11.03;10.03;;;23.10;99.90;;;;;;5037430;28;20549;-78
2022/08/19 07:49:24;;;;;;;9.70;8.90;;;23.10;99.90;;;;;;5036165;28;20875;-79
2022/08/19 07:51:56;;;;;;;9.03;8.13;;;23.20;99.90;;;;;;5037591;28;20438;-78
2022/08/19 07:54:26;;;;;;;8.80;8.00;;;23.30;99.90;;;;;;5037685;28;20498;-78
2022/08/19 07:56:56;;;;;;;9.17;8.30;;;23.40;99.90;;;;;;5035810;28;20984;-78
2022/08/19 07:59:25;;;;;;;9.67;8.77;;;23.50;99.90;;;;;;5036351;28;20443;-79
2022/08/19 08:01:53;;;;;;;10.53;9.40;;;23.40;99.90;;;;;;5035784;28;20541;-77
2022/08/19 08:09:58;;;;;;;34.30;14.53;;;23.10;99.90;;;;;;5037314;28;20549;-78
2022/08/19 08:12:37;;;;;;;10.50;9.43;;;23.00;99.90;;;;;;5036312;28;20979;-77
2022/08/19 08:15:09;;;;;;;10.03;9.13;;;22.90;99.90;;;;;;5034806;28;20500;-77
2022/08/19 08:17:40;;;;;;;9.10;8.20;;;22.90;99.90;;;;;;5035165;28;20490;-77
2022/08/19 08:20:18;;;;;;;7.90;7.30;;;22.80;99.90;;;;;;5035632;28;20423;-77
2022/08/19 08:25:35;;;;;;;9.73;8.93;;;22.70;99.90;;;;;;5036043;28;20952;-77
2022/08/19 08:28:05;;;;;;;8.37;7.67;;;22.60;99.90;;;;;;5035523;28;20439;-77
2022/08/19 08:30:35;;;;;;;8.47;7.60;;;22.50;99.90;;;;;;5034669;28;20925;-77
2022/08/19 08:33:05;;;;;;;8.13;7.43;;;22.50;99.90;;;;;;5036582;28;20454;-77
2022/08/19 08:35:34;;;;;;;9.07;8.27;;;22.70;99.90;;;;;;5034586;28;21014;-77
2022/08/19 08:38:04;;;;;;;9.23;8.53;;;22.80;99.90;;;;;;5036111;28;20463;-77
2022/08/19 08:40:43;;;;;;;9.83;9.03;;;23.00;99.90;;;;;;5036311;28;20459;-77
2022/08/19 08:43:25;;;;;;;8.63;7.83;;;23.10;99.90;;;;;;5034043;28;20539;-78
2022/08/19 08:46:03;;;;;;;7.47;6.77;;;23.20;99.90;;;;;;5035649;28;20498;-77
2022/08/19 08:48:40;;;;;;;7.37;6.77;;;23.30;99.90;;;;;;5036636;28;20834;-78
2022/08/19 08:51:12;;;;;;;6.20;5.70;;;23.40;99.90;;;;;;5034496;28;20788;-79
2022/08/19 08:53:49;;;;;;;7.77;7.07;;;23.50;99.90;;;;;;5037060;28;20467;-79
2022/08/19 08:56:23;;;;;;;6.30;5.80;;;23.60;99.90;;;;;;5035834;28;20467;-78
2022/08/19 08:59:00;;;;;;;6.40;5.80;;;23.70;99.90;;;;;;5036585;28;20450;-78
2022/08/19 09:01:28;;;;;;;6.23;5.63;;;23.80;99.90;;;;;;5035141;28;20958;-79
2022/08/19 09:03:58;;;;;;;5.70;5.23;;;23.80;99.90;;;;;;5036419;28;20530;-78
2022/08/19 09:06:37;;;;;;;5.13;4.73;;;23.90;99.90;;;;;;5036451;28;20458;-78
2022/08/19 09:09:15;;;;;;;5.00;4.50;;;24.00;99.90;;;;;;5035968;28;20915;-80
2022/08/19 09:11:54;;;;;;;4.47;4.07;;;24.00;99.90;;;;;;5037404;28;20778;-78
2022/08/19 09:14:37;;;;;;;4.67;4.20;;;24.10;99.90;;;;;;5037234;28;20458;-77
2022/08/19 09:17:30;;;;;;;4.27;3.87;;;24.20;99.90;;;;;;5036093;28;20525;-78
2022/08/19 09:20:04;;;;;;;4.00;3.70;;;24.20;99.90;;;;;;5037046;28;20430;-78
2022/08/19 09:22:32;;;;;;;4.77;3.20;;;24.30;99.90;;;;;;5035354;28;20509;-77
2022/08/19 09:25:01;;;;;;;3.37;2.97;;;24.30;99.90;;;;;;5035501;28;20454;-76
2022/08/19 09:27:30;;;;;;;4.30;3.43;;;24.40;99.90;;;;;;5035426;28;20504;-78
2022/08/19 09:30:17;;;;;;;3.80;3.43;;;24.50;99.90;;;;;;5035523;28;20427;-77
2022/08/19 09:32:45;;;;;;;3.60;2.87;;;24.60;99.90;;;;;;5034472;28;20499;-77
2022/08/19 09:35:22;;;;;;;3.70;3.40;;;24.70;99.70;;;;;;5035259;28;20426;-77
2022/08/19 09:37:51;;;;;;;3.47;2.40;;;24.70;99.30;;;;;;5033286;28;20907;-77
2022/08/19 09:40:26;;;;;;;2.47;2.17;;;24.70;99.10;;;;;;5035699;28;20468;-77
2022/08/19 09:43:02;;;;;;;3.20;2.90;;;24.80;99.00;;;;;;5035287;28;20952;-76
2022/08/19 09:45:40;;;;;;;3.00;2.70;;;24.90;98.60;;;;;;5035386;28;20855;-77
2022/08/19 09:48:08;;;;;;;4.77;2.80;;;24.90;98.20;;;;;;5035796;28;20952;-77
2022/08/19 09:50:39;;;;;;;3.67;3.10;;;24.90;98.10;;;;;;5035898;28;20421;-76
2022/08/19 09:53:22;;;;;;;4.30;2.20;;;24.90;97.90;;;;;;5035062;28;20554;-78
2022/08/19 09:55:52;;;;;;;3.13;2.27;;;25.00;97.70;;;;;;5035267;28;20476;-78
2022/08/19 09:58:22;;;;;;;3.33;2.43;;;25.00;97.30;;;;;;5036333;28;20458;-77
2022/08/19 10:00:55;;;;;;;2.43;2.17;;;25.10;97.20;;;;;;5034332;28;20447;-77
2022/08/19 10:03:24;;;;;;;3.13;2.10;;;25.10;96.90;;;;;;5035682;28;20443;-78
2022/08/19 10:05:59;;;;;;;2.50;2.20;;;25.10;96.70;;;;;;5034811;28;20434;-77
2022/08/19 10:08:29;;;;;;;2.47;1.60;;;25.10;96.20;;;;;;5033841;28;20537;-77
2022/08/19 10:10:58;;;;;;;2.37;1.33;;;25.10;95.90;;;;;;5034748;28;20419;-78
2022/08/19 10:13:47;;;;;;;1.70;1.40;;;25.20;95.60;;;;;;5037770;28;20505;-78
2022/08/19 10:16:21;;;;;;;2.13;1.30;;;25.20;94.90;;;;;;5040548;28;20458;-78
2022/08/19 10:18:54;;;;;;;2.33;1.23;;;25.20;94.50;;;;;;5039221;28;20954;-77
2022/08/19 10:21:28;;;;;;;2.60;1.40;;;25.20;94.30;;;;;;5037321;28;20447;-77
2022/08/19 10:24:03;;;;;;;2.20;1.70;;;25.30;94.00;;;;;;5038320;28;20465;-77
2022/08/19 10:26:33;;;;;;;2.50;1.77;;;25.30;93.70;;;;;;5038793;28;20459;-77
2022/08/19 10:29:02;;;;;;;2.27;1.90;;;25.30;93.60;;;;;;5037907;28;20486;-77
2022/08/19 10:31:33;;;;;;;2.47;1.90;;;25.30;93.60;;;;;;5038230;28;20435;-76
2022/08/19 10:34:21;;;;;;;3.70;2.27;;;25.30;93.60;;;;;;5039373;28;20549;-77
2022/08/19 10:36:55;;;;;;;2.37;2.07;;;25.30;93.60;;;;;;5037633;28;20465;-77
2022/08/19 10:39:29;;;;;;;2.30;1.77;;;25.30;93.60;;;;;;5036555;28;20435;-76
2022/08/19 10:41:59;;;;;;;2.57;1.93;;;25.30;93.60;;;;;;5037796;28;20927;-78
2022/08/19 10:44:29;;;;;;;2.50;2.10;;;25.40;93.40;;;;;;5037733;28;20522;-77
2022/08/19 10:47:01;;;;;;;2.47;1.97;;;25.40;93.30;;;;;;5037642;28;20587;-77
2022/08/19 10:49:29;;;;;;;2.97;1.60;;;25.50;93.30;;;;;;5037609;28;20442;-77
2022/08/19 10:57:36;;;;;;;2.43;1.80;;;25.60;92.60;;;;;;5035559;28;20570;-77
2022/08/19 11:00:25;;;;;;;1.80;1.30;;;25.60;92.60;;;;;;5037126;28;20419;-76
2022/08/19 11:02:55;;;;;;;1.80;1.53;;;25.60;92.50;;;;;;5037226;28;20450;-77
2022/08/19 11:05:24;;;;;;;1.70;1.60;;;25.70;92.40;;;;;;5037090;28;20423;-76
2022/08/19 11:07:52;;;;;;;2.00;1.53;;;25.70;92.10;;;;;;5036479;28;20494;-77
2022/08/19 11:10:21;;;;;;;1.80;1.30;;;25.80;92.00;;;;;;5036355;28;20427;-78
2022/08/19 11:12:53;;;;;;;2.07;1.63;;;25.80;91.70;;;;;;5034836;28;20802;-76
2022/08/19 11:15:23;;;;;;;1.60;1.30;;;25.90;91.60;;;;;;5035153;28;20458;-76
2022/08/19 11:17:55;;;;;;;1.70;1.10;;;26.00;91.30;;;;;;5036234;28;20485;-76
2022/08/19 11:20:24;;;;;;;2.00;1.30;;;26.00;91.10;;;;;;5035383;28;20443;-76
2022/08/19 11:22:53;;;;;;;1.93;1.40;;;26.00;90.90;;;;;;5036644;28;20435;-76
2022/08/19 11:25:22;;;;;;;1.80;1.10;;;26.00;90.50;;;;;;5035912;28;20960;-77
2022/08/19 11:27:51;;;;;;;1.70;1.30;;;26.00;90.20;;;;;;5035861;28;20492;-77
2022/08/19 11:30:20;;;;;;;1.50;1.10;;;26.00;90.20;;;;;;5034891;28;20451;-77
2022/08/19 11:32:49;;;;;;;1.80;1.30;;;26.00;90.20;;;;;;5035950;28;20765;-76
2022/08/19 11:35:19;;;;;;;1.80;1.40;;;26.00;90.30;;;;;;5034837;28;20805;-77
2022/08/19 11:37:48;;;;;;;2.53;1.40;;;26.00;90.50;;;;;;5035970;28;20512;-76
2022/08/19 11:40:17;;;;;;;2.20;1.37;;;26.00;90.50;;;;;;5034518;28;20501;-76
2022/08/19 11:42:58;;;;;;;1.63;1.07;;;26.00;90.40;;;;;;5034549;28;20443;-77
2022/08/19 11:45:28;;;;;;;2.00;1.17;;;26.00;90.30;;;;;;5034392;28;20459;-77
2022/08/19 11:47:56;;;;;;;1.70;1.10;;;26.00;90.10;;;;;;5034062;28;20903;-77
2022/08/19 11:50:26;;;;;;;3.00;1.13;;;26.00;89.70;;;;;;5035755;28;20442;-77
2022/08/19 11:52:55;;;;;;;2.43;1.20;;;26.00;89.40;;;;;;5035923;28;20469;-77
2022/08/19 11:55:24;;;;;;;1.60;1.00;;;26.00;89.40;;;;;;5036259;28;20489;-76
2022/08/19 11:57:52;;;;;;;1.80;0.90;;;26.00;89.20;;;;;;5035978;28;20459;-76
2022/08/19 12:00:21;;;;;;;2.73;1.50;;;26.00;89.40;;;;;;5035479;28;20940;-77
2022/08/19 12:02:49;;;;;;;2.70;1.70;;;26.00;89.10;;;;;;5034823;28;20443;-78
2022/08/19 12:05:17;;;;;;;1.70;1.20;;;26.10;88.80;;;;;;5038685;28;20453;-77
2022/08/19 12:07:47;;;;;;;1.53;1.07;;;26.10;88.50;;;;;;5037104;28;20459;-77
2022/08/19 12:10:15;;;;;;;2.20;0.90;;;26.10;88.00;;;;;;5036444;28;20471;-77
2022/08/19 12:12:47;;;;;;;1.60;1.00;;;26.10;87.20;;;;;;5036426;28;20427;-77
2022/08/19 12:15:28;;;;;;;1.80;1.00;;;26.20;86.80;;;;;;5035734;28;20466;-77
2022/08/19 12:18:05;;;;;;;1.50;0.90;;;26.10;86.60;;;;;;5035372;28;20451;-76
2022/08/19 12:20:36;;;;;;;2.60;1.00;;;26.20;86.40;;;;;;5034930;28;20454;-76
2022/08/19 12:23:07;;;;;;;1.60;1.20;;;26.30;85.90;;;;;;5035460;28;20777;-77
2022/08/19 12:25:35;;;;;;;1.40;0.90;;;26.20;85.40;;;;;;5035162;28;20530;-76
2022/08/19 12:28:03;;;;;;;1.43;0.83;;;26.30;85.00;;;;;;5033850;28;20481;-76
2022/08/19 12:30:32;;;;;;;1.50;0.80;;;26.30;84.90;;;;;;5035258;28;20785;-77
2022/08/19 12:33:00;;;;;;;1.57;1.00;;;26.30;84.50;;;;;;5034580;28;20986;-76
2022/08/19 12:35:30;;;;;;;2.13;0.97;;;26.40;84.20;;;;;;5033916;28;20471;-77
2022/08/19 12:37:59;;;;;;;1.50;1.10;;;26.40;84.20;;;;;;5034398;28;20828;-77
2022/08/19 12:40:29;;;;;;;1.87;1.00;;;26.40;84.00;;;;;;5033433;28;20533;-78
2022/08/19 12:42:57;;;;;;;1.70;1.20;;;26.40;84.00;;;;;;5034749;28;20463;-77
2022/08/19 12:45:26;;;;;;;1.57;1.17;;;26.40;84.20;;;;;;5033181;28;20494;-77
2022/08/19 12:47:55;;;;;;;1.70;0.90;;;26.50;84.40;;;;;;5034192;28;20554;-77
2022/08/19 12:50:23;;;;;;;2.03;1.30;;;26.50;84.50;;;;;;5032980;28;20458;-76
2022/08/19 12:52:51;;;;;;;1.50;1.03;;;26.50;84.90;;;;;;5034752;28;20435;-77
2022/08/19 12:55:19;;;;;;;1.70;1.30;;;26.50;85.30;;;;;;5034167;28;20466;-76
2022/08/19 12:57:50;;;;;;;2.17;1.37;;;26.50;85.30;;;;;;5033192;28;20466;-76
2022/08/19 13:00:21;;;;;;;2.03;1.30;;;26.50;85.20;;;;;;5033289;28;20496;-76
2022/08/19 13:02:52;;;;;;;2.63;1.50;;;26.60;85.20;;;;;;5034599;28;20425;-76
2022/08/19 13:05:22;;;;;;;1.60;1.30;;;26.60;85.20;;;;;;5032782;28;20439;-77
2022/08/19 13:07:55;;;;;;;2.00;1.37;;;26.60;84.90;;;;;;5034603;28;20477;-76
2022/08/19 13:10:27;;;;;;;1.80;1.40;;;26.70;84.80;;;;;;5032605;28;20865;-76
2022/08/19 13:12:59;;;;;;;1.87;1.33;;;26.70;84.80;;;;;;5032477;28;21012;-76
2022/08/19 13:15:30;;;;;;;2.30;1.40;;;26.80;84.80;;;;;;5034176;28;20459;-77
2022/08/19 13:17:59;;;;;;;1.77;1.20;;;26.80;85.00;;;;;;5033916;28;20455;-77
2022/08/19 13:20:27;;;;;;;2.27;1.40;;;26.90;85.00;;;;;;5034081;28;20856;-76